createdAt,value
2023-12-14T00:00:59.906Z,2.10
2023-12-14T00:03:26.828Z,1.42
2023-12-14T00:05:53.632Z,1.63
2023-12-14T00:08:20.407Z,1.40
2023-12-14T00:10:47.327Z,1.70
2023-12-14T00:13:14.112Z,1.27
2023-12-14T00:15:41.377Z,1.27
2023-12-14T00:18:08.280Z,1.30
2023-12-14T00:20:35.758Z,2.10
2023-12-14T00:23:02.570Z,1.55
2023-12-14T00:25:29.405Z,1.67
2023-12-14T00:27:56.246Z,1.80
2023-12-14T00:30:23.124Z,1.42
2023-12-14T00:32:50.303Z,1.50
2023-12-14T00:35:17.179Z,1.60
2023-12-14T00:37:44.098Z,1.40
2023-12-14T00:40:11.570Z,2.00
2023-12-14T00:42:38.437Z,1.70
2023-12-14T00:45:05.814Z,1.40
2023-12-14T00:47:32.684Z,1.20
2023-12-14T00:49:59.573Z,1.48
2023-12-14T00:52:26.473Z,1.60
2023-12-14T00:54:53.301Z,1.50
2023-12-14T00:57:20.067Z,1.38
2023-12-14T00:59:46.994Z,1.65
2023-12-14T01:02:14.098Z,1.58
2023-12-14T01:04:40.980Z,1.92
2023-12-14T01:07:07.929Z,1.88
2023-12-14T01:09:34.933Z,1.77
2023-12-14T01:12:01.701Z,1.88
2023-12-14T01:14:28.926Z,1.67
2023-12-14T01:16:56.057Z,1.67
2023-12-14T01:19:22.962Z,2.03
2023-12-14T01:21:49.754Z,2.08
2023-12-14T01:24:17.154Z,1.63
2023-12-14T01:26:44.030Z,1.70
2023-12-14T01:29:12.279Z,1.85
2023-12-14T01:31:39.256Z,1.58
2023-12-14T01:34:06.174Z,1.63
2023-12-14T01:36:33.010Z,1.83
2023-12-14T01:38:59.833Z,1.80
2023-12-14T01:41:26.677Z,1.80
2023-12-14T01:43:53.467Z,1.48
2023-12-14T01:46:20.276Z,1.52
2023-12-14T01:48:47.124Z,2.35
2023-12-14T01:51:13.925Z,1.88
2023-12-14T01:53:41.834Z,1.95
2023-12-14T01:56:09.033Z,1.58
2023-12-14T01:58:36.414Z,1.75
2023-12-14T02:01:03.296Z,1.77
2023-12-14T02:03:32.967Z,1.98
2023-12-14T02:06:00.016Z,1.98
2023-12-14T02:08:26.870Z,2.03
2023-12-14T02:10:53.915Z,2.15
2023-12-14T02:13:21.047Z,1.70
2023-12-14T02:15:50.326Z,1.75
2023-12-14T02:18:17.511Z,1.73
2023-12-14T02:20:44.409Z,1.63
2023-12-14T02:23:11.518Z,1.70
2023-12-14T02:25:38.637Z,2.65
2023-12-14T02:28:05.661Z,2.15
2023-12-14T02:30:32.616Z,1.90
2023-12-14T02:32:59.502Z,1.85
2023-12-14T02:35:26.294Z,1.80
2023-12-14T02:37:55.280Z,1.90
2023-12-14T02:40:22.119Z,1.63
2023-12-14T02:42:48.929Z,1.73
2023-12-14T02:45:15.697Z,1.63
2023-12-14T02:47:42.505Z,2.17
2023-12-14T02:50:09.985Z,1.63
2023-12-14T02:52:37.289Z,1.60
2023-12-14T02:55:04.665Z,1.30
2023-12-14T02:57:31.546Z,1.45
2023-12-14T02:59:58.361Z,1.50
2023-12-14T03:02:25.336Z,1.55
2023-12-14T03:04:52.245Z,1.48
2023-12-14T03:07:20.293Z,1.60
2023-12-14T03:09:47.153Z,1.38
2023-12-14T03:12:13.936Z,1.50
2023-12-14T03:14:41.702Z,2.17
2023-12-14T03:17:13.678Z,1.70
2023-12-14T03:19:42.300Z,1.50
2023-12-14T03:22:09.795Z,1.70
2023-12-14T03:24:37.076Z,1.63
2023-12-14T03:27:05.016Z,1.67
2023-12-14T03:29:31.951Z,1.70
2023-12-14T03:31:58.824Z,1.65
2023-12-14T03:34:25.777Z,2.00
2023-12-14T03:36:52.770Z,1.30
2023-12-14T03:39:19.621Z,2.75
2023-12-14T03:41:46.395Z,1.73
2023-12-14T03:44:13.308Z,2.42
2023-12-14T03:46:40.134Z,1.75
2023-12-14T03:49:07.124Z,1.75
2023-12-14T03:51:33.943Z,1.95
2023-12-14T03:54:00.775Z,2.25
2023-12-14T03:56:27.560Z,2.08
2023-12-14T03:58:54.479Z,2.35
2023-12-14T04:01:22.287Z,1.83
2023-12-14T04:03:49.502Z,2.35
2023-12-14T04:06:16.765Z,2.28
2023-12-14T04:08:43.688Z,2.22
2023-12-14T04:11:10.771Z,1.90
2023-12-14T04:13:39.595Z,2.50
2023-12-14T04:16:07.035Z,2.08
2023-12-14T04:18:33.928Z,2.42
2023-12-14T04:21:00.886Z,2.15
2023-12-14T04:23:28.269Z,1.90
2023-12-14T04:25:55.222Z,2.55
2023-12-14T04:28:22.065Z,2.30
2023-12-14T04:30:49.028Z,1.45
2023-12-14T04:33:15.964Z,1.65
2023-12-14T04:35:42.779Z,1.75
2023-12-14T04:38:09.742Z,2.53
2023-12-14T04:40:36.653Z,2.75
2023-12-14T04:43:03.845Z,2.05
2023-12-14T04:45:30.752Z,1.73
2023-12-14T04:47:57.629Z,2.40
2023-12-14T04:50:24.517Z,2.00
2023-12-14T04:52:51.674Z,2.65
2023-12-14T04:55:18.515Z,2.90
2023-12-14T04:57:47.448Z,2.47
2023-12-14T05:00:15.061Z,2.80
2023-12-14T05:02:41.852Z,2.67
2023-12-14T05:05:08.823Z,2.25
2023-12-14T05:07:35.725Z,2.97
2023-12-14T05:10:02.594Z,2.97
2023-12-14T05:12:30.533Z,2.85
2023-12-14T05:14:57.389Z,3.15
2023-12-14T05:17:24.220Z,2.63
2023-12-14T05:19:51.247Z,3.30
2023-12-14T05:22:18.420Z,2.55
2023-12-14T05:24:48.330Z,2.92
2023-12-14T05:27:15.684Z,2.70
2023-12-14T05:29:42.705Z,3.15
2023-12-14T05:32:09.616Z,2.90
2023-12-14T05:34:36.600Z,2.67
2023-12-14T05:37:03.874Z,2.83
2023-12-14T05:39:30.704Z,3.13
2023-12-14T05:41:57.509Z,3.53
2023-12-14T05:44:24.315Z,2.63
2023-12-14T05:46:51.157Z,3.22
2023-12-14T05:49:18.125Z,2.85
2023-12-14T05:51:44.969Z,3.53
2023-12-14T05:54:11.758Z,2.42
2023-12-14T05:56:40.402Z,2.30
2023-12-14T05:59:08.750Z,2.45
2023-12-14T06:01:35.857Z,2.67
2023-12-14T06:04:03.462Z,2.42
2023-12-14T06:06:30.234Z,2.20
2023-12-14T06:08:57.425Z,2.60
2023-12-14T06:11:24.213Z,2.78
2023-12-14T06:13:51.386Z,2.65
2023-12-14T06:16:18.180Z,2.83
2023-12-14T06:18:45.308Z,2.83
2023-12-14T06:21:15.233Z,2.95
2023-12-14T06:23:42.080Z,2.83
2023-12-14T06:26:08.946Z,3.13
2023-12-14T06:28:35.843Z,3.05
2023-12-14T06:31:02.855Z,3.35
2023-12-14T06:33:30.106Z,3.63
2023-12-14T06:35:57.120Z,3.35
2023-12-14T06:38:24.250Z,2.75
2023-12-14T06:40:51.293Z,3.08
2023-12-14T06:43:18.175Z,3.13
2023-12-14T06:45:45.060Z,3.22
2023-12-14T06:48:12.085Z,3.13
2023-12-14T06:50:39.037Z,2.67
2023-12-14T06:53:06.008Z,2.72
2023-12-14T06:55:32.937Z,2.65
2023-12-14T06:57:59.826Z,2.90
2023-12-14T07:00:26.723Z,2.92
2023-12-14T07:02:53.635Z,3.30
2023-12-14T07:05:20.639Z,2.85
2023-12-14T07:07:47.657Z,2.42
2023-12-14T07:10:14.570Z,2.30
2023-12-14T07:12:41.383Z,2.42
2023-12-14T07:15:08.549Z,2.30
2023-12-14T07:17:35.661Z,2.72
2023-12-14T07:20:02.636Z,2.25
2023-12-14T07:22:29.497Z,1.98
2023-12-14T07:25:01.925Z,2.50
2023-12-14T07:27:28.991Z,1.95
2023-12-14T07:30:05.068Z,2.00
2023-12-14T07:32:31.977Z,2.30
2023-12-14T07:34:58.779Z,2.65
2023-12-14T07:37:25.739Z,2.20
2023-12-14T07:39:52.944Z,1.90
2023-12-14T07:42:21.200Z,1.92
2023-12-14T07:44:48.472Z,2.35
2023-12-14T07:47:15.380Z,2.20
2023-12-14T07:49:42.229Z,2.13
2023-12-14T07:52:09.306Z,2.22
2023-12-14T07:54:37.273Z,2.03
2023-12-14T07:57:04.376Z,1.80
2023-12-14T07:59:40.953Z,2.60
2023-12-14T08:02:07.846Z,1.67
2023-12-14T08:04:34.776Z,2.38
2023-12-14T08:07:01.752Z,1.60
2023-12-14T08:09:28.577Z,3.00
2023-12-14T08:11:55.793Z,2.25
2023-12-14T08:14:22.698Z,2.00
2023-12-14T08:16:50.186Z,2.33
2023-12-14T08:19:19.497Z,2.17
2023-12-14T08:21:46.442Z,2.35
2023-12-14T08:24:13.306Z,2.65
2023-12-14T08:26:40.202Z,1.90
2023-12-14T08:29:07.206Z,2.35
2023-12-14T08:31:34.015Z,2.22
2023-12-14T08:34:00.856Z,2.47
2023-12-14T08:36:27.760Z,2.40
2023-12-14T08:38:54.596Z,2.10
2023-12-14T08:41:21.642Z,2.63
2023-12-14T08:43:48.457Z,2.40
2023-12-14T08:46:15.414Z,2.22
2023-12-14T08:48:42.958Z,2.42
2023-12-14T08:51:10.187Z,3.05
2023-12-14T08:53:37.026Z,2.60
2023-12-14T08:56:04.326Z,2.55
2023-12-14T08:58:31.380Z,2.72
2023-12-14T09:00:58.238Z,2.97
2023-12-14T09:03:25.288Z,2.65
2023-12-14T09:05:52.561Z,2.25
2023-12-14T09:08:19.518Z,2.00
2023-12-14T09:10:46.504Z,2.30
2023-12-14T09:13:13.394Z,2.60
2023-12-14T09:15:40.149Z,2.35
2023-12-14T09:18:07.314Z,1.52
2023-12-14T09:20:36.318Z,2.10
2023-12-14T09:23:06.316Z,1.63
2023-12-14T09:25:34.574Z,2.47
2023-12-14T09:28:01.482Z,2.75
2023-12-14T09:30:28.486Z,2.20
2023-12-14T09:32:55.332Z,2.25
2023-12-14T09:35:22.197Z,1.83
2023-12-14T09:37:49.074Z,1.60
2023-12-14T09:40:17.735Z,1.50
2023-12-14T09:42:44.596Z,1.80
2023-12-14T09:45:11.465Z,1.77
2023-12-14T09:47:39.119Z,3.00
2023-12-14T09:50:07.279Z,1.80
2023-12-14T09:52:34.926Z,2.15
2023-12-14T09:55:05.157Z,2.20
2023-12-14T09:57:32.336Z,1.40
2023-12-14T09:59:59.338Z,1.65
2023-12-14T10:02:27.832Z,1.35
2023-12-14T10:04:55.081Z,1.60
2023-12-14T10:07:25.355Z,1.92
2023-12-14T10:09:54.155Z,1.70
2023-12-14T10:12:23.032Z,1.30
2023-12-14T10:14:49.906Z,1.10
2023-12-14T10:17:23.761Z,1.63
2023-12-14T10:19:51.104Z,1.05
2023-12-14T10:22:20.989Z,0.70
2023-12-14T10:24:48.436Z,1.20
2023-12-14T10:27:18.425Z,1.45
2023-12-14T10:29:47.190Z,0.90
2023-12-14T10:32:14.213Z,1.10
2023-12-14T10:34:42.246Z,1.10
2023-12-14T10:37:09.845Z,0.73
2023-12-14T10:39:36.972Z,0.88
2023-12-14T10:42:14.904Z,1.30
2023-12-14T10:45:05.180Z,0.90
2023-12-14T10:47:34.551Z,1.42
2023-12-14T10:50:02.854Z,1.60
2023-12-14T10:52:30.406Z,1.13
2023-12-14T10:55:03.561Z,1.13
2023-12-14T10:57:30.548Z,0.80
2023-12-14T11:00:01.365Z,1.40
2023-12-14T11:02:28.267Z,0.90
2023-12-14T11:05:00.556Z,1.05
2023-12-14T11:07:56.066Z,1.10
2023-12-14T11:10:29.554Z,1.23
2023-12-14T11:13:12.258Z,1.10
2023-12-14T11:15:39.414Z,0.80
2023-12-14T11:18:10.015Z,0.88
2023-12-14T11:20:46.455Z,2.17
2023-12-14T11:23:18.585Z,1.00
2023-12-14T11:25:47.191Z,1.38
2023-12-14T11:28:15.324Z,1.48
2023-12-14T11:30:54.776Z,1.15
2023-12-14T11:33:22.961Z,0.90
2023-12-14T11:35:49.875Z,1.20
2023-12-14T11:38:16.807Z,1.40
2023-12-14T11:40:43.902Z,1.13
2023-12-14T11:43:11.007Z,1.17
2023-12-14T11:45:41.302Z,1.20
2023-12-14T11:48:11.491Z,1.52
2023-12-14T11:50:39.341Z,1.38
2023-12-14T11:53:06.869Z,1.40
2023-12-14T11:55:34.960Z,1.50
2023-12-14T11:58:02.226Z,1.40
2023-12-14T12:00:30.043Z,1.30
2023-12-14T12:03:15.871Z,1.17
2023-12-14T12:05:50.721Z,1.80
2023-12-14T12:08:20.911Z,1.70
2023-12-14T12:10:48.394Z,1.75
2023-12-14T12:13:19.485Z,1.52
2023-12-14T12:15:46.418Z,1.50
2023-12-14T12:18:15.181Z,1.88
2023-12-14T12:20:42.084Z,1.48
2023-12-14T12:23:09.248Z,1.88
2023-12-14T12:25:36.392Z,1.88
2023-12-14T12:28:03.736Z,1.83
2023-12-14T12:30:30.711Z,1.73
2023-12-14T12:32:57.637Z,1.95
2023-12-14T12:35:25.065Z,1.70
2023-12-14T12:37:55.229Z,2.03
2023-12-14T12:40:23.390Z,2.40
2023-12-14T12:42:50.593Z,2.65
2023-12-14T12:45:23.353Z,2.50
2023-12-14T12:47:50.495Z,2.60
2023-12-14T12:50:17.621Z,2.35
2023-12-14T12:52:47.328Z,3.42
2023-12-14T12:55:14.334Z,1.85
2023-12-14T12:57:42.704Z,1.70
2023-12-14T13:00:13.120Z,1.83
2023-12-14T13:02:40.910Z,1.98
2023-12-14T13:05:09.032Z,2.05
2023-12-14T13:07:37.488Z,1.90
2023-12-14T13:10:16.170Z,1.60
2023-12-14T13:12:52.090Z,2.08
2023-12-14T13:15:20.141Z,1.75
2023-12-14T13:17:47.193Z,1.80
2023-12-14T13:20:14.310Z,1.58
2023-12-14T13:22:43.122Z,1.40
2023-12-14T13:25:11.112Z,1.58
2023-12-14T13:27:38.457Z,1.90
2023-12-14T13:30:06.860Z,1.92
2023-12-14T13:32:33.728Z,2.03
2023-12-14T13:35:01.117Z,2.17
2023-12-14T13:37:28.048Z,2.00
2023-12-14T13:39:55.038Z,2.47
2023-12-14T13:42:22.541Z,2.70
2023-12-14T13:44:49.444Z,1.77
2023-12-14T13:47:19.083Z,2.55
2023-12-14T13:49:46.028Z,2.55
2023-12-14T13:52:12.924Z,2.42
2023-12-14T13:54:39.801Z,2.40
2023-12-14T13:57:06.641Z,2.50
2023-12-14T13:59:33.464Z,2.47
2023-12-14T14:02:00.288Z,2.40
2023-12-14T14:04:27.913Z,3.83
2023-12-14T14:06:54.920Z,2.80
2023-12-14T14:09:22.391Z,3.97
2023-12-14T14:11:52.470Z,3.00
2023-12-14T14:14:20.171Z,3.13
2023-12-14T14:16:47.115Z,3.10
2023-12-14T14:19:13.993Z,3.10
2023-12-14T14:21:40.859Z,3.40
2023-12-14T14:24:07.929Z,4.93
2023-12-14T14:26:34.930Z,4.05
2023-12-14T14:29:03.134Z,3.58
2023-12-14T14:31:34.183Z,2.97
2023-12-14T14:34:01.635Z,3.40
2023-12-14T14:36:28.682Z,2.92
2023-12-14T14:38:58.414Z,3.30
2023-12-14T14:41:25.919Z,3.83
2023-12-14T14:43:53.351Z,3.70
2023-12-14T14:46:20.560Z,3.90
2023-12-14T14:48:47.547Z,4.18
2023-12-14T14:51:14.700Z,4.10
2023-12-14T14:53:44.202Z,3.47
2023-12-14T14:56:11.858Z,3.60
2023-12-14T14:58:39.087Z,4.13
2023-12-14T15:01:06.407Z,3.85
2023-12-14T15:03:33.974Z,5.03
2023-12-14T15:06:01.189Z,5.55
2023-12-14T15:08:28.300Z,4.57
2023-12-14T15:10:56.880Z,5.35
2023-12-14T15:13:24.372Z,4.90
2023-12-14T15:15:51.324Z,5.72
2023-12-14T15:18:18.267Z,5.00
2023-12-14T15:20:46.033Z,5.50
2023-12-14T15:23:12.948Z,5.13
2023-12-14T15:25:39.774Z,5.53
2023-12-14T15:28:07.252Z,5.80
2023-12-14T15:30:34.112Z,5.68
2023-12-14T15:33:01.581Z,5.07
2023-12-14T15:35:28.469Z,5.75
2023-12-14T15:37:55.397Z,6.90
2023-12-14T15:40:22.284Z,5.65
2023-12-14T15:42:52.174Z,5.97
2023-12-14T15:45:21.181Z,5.60
2023-12-14T15:47:48.150Z,5.82
2023-12-14T15:50:15.455Z,5.40
2023-12-14T15:52:42.420Z,6.07
2023-12-14T15:55:09.464Z,5.82
2023-12-14T15:57:40.629Z,6.15
2023-12-14T16:00:07.989Z,6.00
2023-12-14T16:02:35.537Z,6.28
2023-12-14T16:05:02.969Z,5.90
2023-12-14T16:07:30.575Z,5.72
2023-12-14T16:09:57.579Z,6.00
2023-12-14T16:12:24.709Z,6.75
2023-12-14T16:14:52.072Z,6.47
2023-12-14T16:17:19.053Z,6.13
2023-12-14T16:19:49.287Z,6.88
2023-12-14T16:22:18.127Z,6.95
2023-12-14T16:24:45.058Z,6.85
2023-12-14T16:27:12.133Z,6.55
2023-12-14T16:29:39.283Z,6.80
2023-12-14T16:32:06.635Z,7.30
2023-12-14T16:34:34.017Z,8.07
2023-12-14T16:37:03.390Z,8.32
2023-12-14T16:39:31.224Z,8.50
2023-12-14T16:41:58.153Z,8.95
2023-12-14T16:44:27.697Z,8.55
2023-12-14T16:46:54.508Z,8.25
2023-12-14T16:49:21.482Z,8.40
2023-12-14T16:51:48.515Z,8.73
2023-12-14T16:54:15.264Z,8.80
2023-12-14T16:56:44.205Z,7.13
2023-12-14T16:59:13.605Z,7.38
2023-12-14T17:01:42.998Z,7.93
2023-12-14T17:04:10.105Z,8.82
2023-12-14T17:06:36.922Z,11.30
2023-12-14T17:09:04.135Z,8.50
2023-12-14T17:11:31.010Z,7.97
2023-12-14T17:13:57.922Z,7.82
2023-12-14T17:16:25.248Z,8.10
2023-12-14T17:18:52.263Z,8.73
2023-12-14T17:21:26.849Z,7.90
2023-12-14T17:23:54.649Z,8.45
2023-12-14T17:26:23.623Z,9.30
2023-12-14T17:28:55.387Z,10.10
2023-12-14T17:31:22.817Z,9.43
2023-12-14T17:33:50.085Z,10.20
2023-12-14T17:36:17.005Z,10.68
2023-12-14T17:38:46.371Z,8.52
2023-12-14T17:41:15.936Z,10.73
2023-12-14T17:43:43.476Z,10.07
2023-12-14T17:46:14.012Z,10.30
2023-12-14T17:48:40.781Z,10.55
2023-12-14T17:51:08.224Z,10.38
2023-12-14T17:53:39.904Z,10.57
2023-12-14T17:56:08.161Z,10.40
2023-12-14T17:58:35.110Z,11.35
2023-12-14T18:01:05.625Z,9.60
2023-12-14T18:03:33.726Z,11.10
2023-12-14T18:06:02.550Z,9.70
2023-12-14T18:08:30.069Z,10.20
2023-12-14T18:10:58.016Z,10.52
2023-12-14T18:13:26.462Z,11.02
2023-12-14T18:15:53.415Z,11.45
2023-12-14T18:18:20.355Z,11.15
2023-12-14T18:20:47.213Z,12.85
2023-12-14T18:23:14.325Z,12.45
2023-12-14T18:25:41.340Z,12.32
2023-12-14T18:28:08.351Z,13.73
2023-12-14T18:30:35.337Z,15.73
2023-12-14T18:33:02.500Z,15.88
2023-12-14T18:35:29.564Z,15.27
2023-12-14T18:37:57.575Z,14.63
2023-12-14T18:40:26.277Z,14.50
2023-12-14T18:42:56.200Z,15.30
2023-12-14T18:45:23.019Z,14.10
2023-12-14T18:47:49.863Z,14.95
2023-12-14T18:50:17.636Z,13.32
2023-12-14T18:52:44.534Z,11.90
2023-12-14T18:55:12.360Z,13.05
2023-12-14T18:57:42.108Z,12.55
2023-12-14T19:00:09.690Z,12.07
2023-12-14T19:02:38.874Z,12.68
2023-12-14T19:05:06.776Z,13.52
2023-12-14T19:07:34.132Z,14.35
2023-12-14T19:10:03.785Z,14.13
2023-12-14T19:12:32.052Z,15.27
2023-12-14T19:14:58.861Z,16.83
2023-12-14T19:17:26.791Z,15.88
2023-12-14T19:19:55.906Z,13.80
2023-12-14T19:22:23.202Z,16.13
2023-12-14T19:24:50.093Z,15.93
2023-12-14T19:27:16.954Z,15.23
2023-12-14T19:29:44.039Z,16.20
2023-12-14T19:32:10.982Z,16.77
2023-12-14T19:34:37.901Z,16.30
2023-12-14T19:37:04.881Z,16.05
2023-12-14T19:39:34.483Z,17.00
2023-12-14T19:42:01.608Z,16.20
2023-12-14T19:44:28.685Z,16.90
2023-12-14T19:46:55.641Z,16.75
2023-12-14T19:49:23.217Z,17.67
2023-12-14T19:51:50.388Z,18.77
2023-12-14T19:54:17.333Z,21.70
2023-12-14T19:56:46.260Z,25.65
2023-12-14T19:59:13.112Z,23.55
2023-12-14T20:01:41.856Z,21.95
2023-12-14T20:04:10.701Z,21.85
2023-12-14T20:06:38.282Z,22.67
2023-12-14T20:09:05.385Z,21.88
2023-12-14T20:11:32.316Z,22.45
2023-12-14T20:13:59.242Z,22.15
2023-12-14T20:16:27.033Z,22.45
2023-12-14T20:18:54.028Z,24.25
2023-12-14T20:21:21.526Z,22.55
2023-12-14T20:24:01.593Z,22.45
2023-12-14T20:26:31.834Z,22.98
2023-12-14T20:28:59.052Z,20.63
2023-12-14T20:31:26.076Z,21.83
2023-12-14T20:33:53.098Z,25.55
2023-12-14T20:36:19.966Z,25.08
2023-12-14T20:38:46.723Z,25.27
2023-12-14T20:41:14.729Z,22.85
2023-12-14T20:43:43.873Z,24.30
2023-12-14T20:46:10.800Z,21.40
2023-12-14T20:48:50.669Z,20.63
2023-12-14T20:51:20.454Z,19.67
2023-12-14T20:53:48.264Z,19.38
2023-12-14T20:56:18.378Z,19.83
2023-12-14T20:59:03.565Z,20.55
2023-12-14T21:01:38.453Z,20.80
2023-12-14T21:04:05.555Z,20.60
2023-12-14T21:06:35.116Z,18.98
2023-12-14T21:09:01.964Z,17.40
2023-12-14T21:11:28.778Z,18.90
2023-12-14T21:14:02.147Z,20.33
2023-12-14T21:16:53.541Z,20.33
2023-12-14T21:19:36.101Z,19.85
2023-12-14T21:25:08.700Z,19.23
2023-12-14T21:28:15.407Z,20.13
2023-12-14T21:30:45.752Z,19.88
2023-12-14T21:33:37.895Z,20.13
2023-12-14T21:36:19.693Z,19.20
2023-12-14T21:41:36.205Z,18.38
2023-12-14T21:44:03.049Z,16.70
2023-12-14T21:46:37.843Z,17.33
2023-12-14T21:49:14.122Z,17.42
2023-12-14T21:51:45.680Z,16.58
2023-12-14T21:54:12.796Z,16.48
2023-12-14T21:56:40.073Z,18.67
2023-12-14T21:59:13.391Z,16.33
2023-12-14T22:01:40.215Z,12.25
2023-12-14T22:04:07.361Z,16.48
2023-12-14T22:06:34.281Z,14.52
2023-12-14T22:09:04.582Z,14.60
2023-12-14T22:11:31.527Z,17.05
2023-12-14T22:13:59.701Z,16.73
2023-12-14T22:16:26.708Z,15.02
2023-12-14T22:18:54.214Z,15.45
2023-12-14T22:21:21.343Z,15.07
2023-12-14T22:23:48.265Z,13.90
2023-12-14T22:26:15.253Z,14.75
2023-12-14T22:28:42.379Z,14.50
2023-12-14T22:31:09.551Z,14.25
2023-12-14T22:33:48.384Z,14.90
2023-12-14T22:36:15.600Z,14.25
2023-12-14T22:38:42.380Z,15.50
2023-12-14T22:41:14.408Z,13.98
2023-12-14T22:43:41.271Z,15.13
2023-12-14T22:46:09.650Z,16.13
2023-12-14T22:51:20.410Z,11.65
2023-12-14T22:53:47.584Z,16.02
2023-12-14T22:56:25.116Z,16.08
2023-12-14T22:58:52.848Z,15.60
2023-12-14T23:01:36.758Z,15.48
2023-12-14T23:04:07.051Z,16.92
2023-12-14T23:06:34.893Z,15.10
2023-12-14T23:09:02.542Z,14.18
2023-12-14T23:11:30.103Z,14.35
2023-12-14T23:14:00.700Z,15.35
2023-12-14T23:16:27.875Z,14.43
2023-12-14T23:18:56.214Z,15.88
2023-12-14T23:21:23.226Z,14.05
2023-12-14T23:23:52.381Z,15.60
2023-12-14T23:26:19.557Z,14.57
2023-12-14T23:28:46.721Z,13.82
2023-12-14T23:31:13.631Z,13.77
2023-12-14T23:33:40.772Z,13.52
2023-12-14T23:36:08.217Z,14.65
2023-12-14T23:38:35.311Z,12.73
2023-12-14T23:41:02.293Z,13.07
2023-12-14T23:43:29.259Z,12.43
2023-12-14T23:45:56.129Z,13.23
2023-12-14T23:48:23.227Z,13.88
2023-12-14T23:50:50.046Z,12.25
2023-12-14T23:53:16.940Z,12.60
2023-12-14T23:55:43.951Z,12.55
2023-12-14T23:58:11.053Z,11.77
